NRN weather

Narayen
Narayen, Queensland, Australia

Public forecast

Using degrees Celsius for public forecast. Weather courtesy of forecast.io.

Closest aviation weather report (METAR) to Narayen

Closest report is Kingaroy Airport, 75.6 nm (140.1 km) SE. Retrieved 2020/04/06 08:00 UTC (32 minutes ago):

YKRY 060800Z AUTO 17005KT 9999 // NCD 21/03 Q1015

Closest aviation forecast (TAF) to Narayen

Forecast is more than 6 hours old.

Closest forecast is Gladstone Airport, 110.6 nm (204.8 km) N. Retrieved 2020-04-06 00:00 UTC (9 hours ago):

TAF YGLA 052218Z 0600/0612 10012KT 9999 FEW040